createdAt,value
2023-02-16T00:00:55.658Z,7.1
2023-02-16T00:02:56.883Z,7.1
2023-02-16T00:11:05.329Z,7.1
2023-02-16T00:13:06.163Z,7.1
2023-02-16T00:15:07.374Z,7.1
2023-02-16T00:17:08.564Z,7.1
2023-02-16T00:19:13.041Z,7
2023-02-16T00:21:14.268Z,7
2023-02-16T00:23:15.467Z,7
2023-02-16T00:25:16.646Z,7
2023-02-16T00:27:17.860Z,6.9
2023-02-16T00:29:19.050Z,7
2023-02-16T00:31:20.409Z,7
2023-02-16T00:33:24.718Z,6.9
2023-02-16T00:35:25.939Z,6.9
2023-02-16T00:37:27.144Z,6.9
2023-02-16T00:38:29.395Z,6.9
2023-02-16T00:42:31.794Z,6.9
2023-02-16T00:46:37.566Z,6.8
2023-02-16T00:48:38.644Z,6.8
2023-02-16T00:50:39.849Z,6.8
2023-02-16T00:52:41.059Z,6.8
2023-02-16T00:54:42.261Z,6.8
2023-02-16T00:58:44.650Z,6.7
2023-02-16T01:00:49.111Z,6.7
2023-02-16T01:02:50.325Z,6.7
2023-02-16T01:04:51.727Z,6.6
2023-02-16T01:06:52.746Z,6.6
2023-02-16T01:08:53.900Z,6.7
2023-02-16T01:10:55.101Z,6.7
2023-02-16T01:12:56.305Z,6.6
2023-02-16T01:15:00.765Z,6.6
2023-02-16T01:19:03.144Z,6.6
2023-02-16T01:21:04.647Z,6.5
2023-02-16T01:23:05.568Z,6.5
2023-02-16T01:27:07.956Z,6.5
2023-02-16T01:29:12.416Z,6.5
2023-02-16T01:31:13.682Z,6.5
2023-02-16T01:33:14.801Z,6.5
2023-02-16T01:34:17.036Z,6.4
2023-02-16T01:40:20.624Z,6.4
2023-02-16T01:42:25.064Z,6.4
2023-02-16T01:44:26.265Z,6.4
2023-02-16T01:46:27.485Z,6.4
2023-02-16T01:48:28.658Z,6.4
2023-02-16T01:50:29.835Z,6.3
2023-02-16T01:52:31.035Z,6.3
2023-02-16T01:54:32.235Z,6.3
2023-02-16T01:56:36.695Z,6.3
2023-02-16T01:58:37.881Z,6.3
2023-02-16T02:00:39.094Z,6.3
2023-02-16T02:02:40.304Z,6.2
2023-02-16T02:04:41.472Z,6.2
2023-02-16T02:06:42.658Z,6.2
2023-02-16T02:10:48.354Z,6.1
2023-02-16T02:12:49.593Z,6.1
2023-02-16T02:18:54.642Z,6.1
2023-02-16T02:22:57.054Z,6.1
2023-02-16T02:25:01.548Z,6.1
2023-02-16T02:27:02.746Z,6.1
2023-02-16T02:29:03.923Z,6.1
2023-02-16T02:30:06.214Z,6.1
2023-02-16T02:32:07.427Z,6
2023-02-16T02:34:08.569Z,6
2023-02-16T02:36:09.785Z,6
2023-02-16T02:40:15.447Z,6
2023-02-16T02:42:16.596Z,6
2023-02-16T02:44:17.791Z,6
2023-02-16T02:46:18.995Z,6
2023-02-16T02:48:20.211Z,6
2023-02-16T02:50:21.410Z,6.1
2023-02-16T02:52:25.887Z,6.1
2023-02-16T02:54:27.109Z,6.1
2023-02-16T02:56:28.280Z,6.1
2023-02-16T02:58:29.502Z,6.1
2023-02-16T03:00:30.718Z,6.1
2023-02-16T03:02:31.937Z,6.1
2023-02-16T03:04:33.116Z,6.1
2023-02-16T03:06:37.566Z,6.1
2023-02-16T03:08:38.749Z,6.2
2023-02-16T03:10:39.944Z,6.2
2023-02-16T03:12:41.152Z,6.1
2023-02-16T03:14:42.320Z,6.2
2023-02-16T03:16:43.632Z,6.2
2023-02-16T03:18:44.775Z,6.2
2023-02-16T03:20:49.220Z,6.2
2023-02-16T03:24:51.638Z,6.3
2023-02-16T03:29:21.195Z,6.3
2023-02-16T03:31:22.527Z,6.3
2023-02-16T03:33:26.846Z,6.3
2023-02-16T03:35:28.054Z,6.3
2023-02-16T03:37:29.268Z,6.3
2023-02-16T03:39:30.463Z,6.3
2023-02-16T03:41:31.694Z,6.3
2023-02-16T03:47:38.551Z,6.3
2023-02-16T03:49:39.757Z,6.3
2023-02-16T03:51:40.953Z,6.3
2023-02-16T03:53:42.181Z,6.3
2023-02-16T03:55:43.348Z,6.3
2023-02-16T03:59:45.772Z,6.3
2023-02-16T04:01:50.273Z,6.3
2023-02-16T04:03:51.476Z,6.3
2023-02-16T04:07:53.821Z,6.3
2023-02-16T04:09:55.037Z,6.3
2023-02-16T04:11:56.224Z,6.3
2023-02-16T04:13:57.430Z,6.3
2023-02-16T04:16:01.892Z,6.4
2023-02-16T04:18:03.102Z,6.4
2023-02-16T04:20:04.304Z,6.4
2023-02-16T04:23:07.705Z,6.4
2023-02-16T04:25:08.920Z,6.5
2023-02-16T04:27:10.115Z,6.5
2023-02-16T04:29:14.575Z,6.5
2023-02-16T04:33:16.981Z,6.5
2023-02-16T04:35:18.180Z,6.5
2023-02-16T04:37:19.378Z,6.5
2023-02-16T04:39:20.593Z,6.5
2023-02-16T04:41:21.793Z,6.5
2023-02-16T04:43:26.231Z,6.5
2023-02-16T04:45:27.455Z,6.5
2023-02-16T04:47:28.715Z,6.5
2023-02-16T04:49:29.849Z,6.5
2023-02-16T04:51:31.032Z,6.5
2023-02-16T04:53:32.227Z,6.5
2023-02-16T04:57:37.885Z,6.6
2023-02-16T04:59:39.089Z,6.6
2023-02-16T05:01:40.321Z,6.6
2023-02-16T05:03:41.501Z,6.6
2023-02-16T05:07:43.880Z,6.6
2023-02-16T05:09:45.081Z,6.6
2023-02-16T05:11:49.529Z,6.6
2023-02-16T05:13:50.746Z,6.6
2023-02-16T05:15:52.070Z,6.6
2023-02-16T05:16:54.189Z,6.6
2023-02-16T05:18:58.340Z,6.6
2023-02-16T05:20:56.560Z,6.7
2023-02-16T05:22:57.769Z,6.6
2023-02-16T05:25:02.265Z,6.7
2023-02-16T05:27:03.461Z,6.6
2023-02-16T05:29:04.663Z,6.6
2023-02-16T05:31:06.360Z,6.7
2023-02-16T05:33:07.076Z,6.7
2023-02-16T05:35:08.298Z,6.7
2023-02-16T05:37:09.484Z,6.7
2023-02-16T05:39:13.934Z,6.7
2023-02-16T05:41:15.132Z,6.7
2023-02-16T05:43:16.344Z,6.7
2023-02-16T05:45:17.565Z,6.7
2023-02-16T05:47:18.779Z,6.7
2023-02-16T05:49:19.954Z,6.7
2023-02-16T05:51:21.168Z,6.7
2023-02-16T05:53:25.624Z,6.7
2023-02-16T05:55:26.828Z,6.7
2023-02-16T05:57:28.018Z,6.7
2023-02-16T05:59:29.230Z,6.7
2023-02-16T06:01:30.428Z,6.7
2023-02-16T06:03:31.735Z,6.7
2023-02-16T06:05:32.821Z,6.7
2023-02-16T06:07:37.291Z,6.7
2023-02-16T06:09:38.508Z,6.7
2023-02-16T06:11:39.722Z,6.7
2023-02-16T06:14:43.146Z,6.7
2023-02-16T06:18:45.570Z,6.7
2023-02-16T06:22:51.219Z,6.6
2023-02-16T06:24:52.437Z,6.6
2023-02-16T06:26:53.624Z,6.6
2023-02-16T06:28:54.847Z,6.6
2023-02-16T06:32:57.218Z,6.6
2023-02-16T06:35:01.709Z,6.6
2023-02-16T06:37:02.880Z,6.6
2023-02-16T06:39:04.159Z,6.7
2023-02-16T06:41:05.631Z,6.6
2023-02-16T06:45:07.700Z,6.6
2023-02-16T06:47:08.911Z,6.6
2023-02-16T06:55:17.000Z,6.6
2023-02-16T06:57:18.192Z,6.5
2023-02-16T07:01:20.695Z,6.5
2023-02-16T07:03:25.140Z,6.5
2023-02-16T07:05:26.307Z,6.5
2023-02-16T07:07:27.516Z,6.5
2023-02-16T07:09:49.770Z,6.5
2023-02-16T07:11:50.974Z,6.5
2023-02-16T07:13:52.177Z,6.5
2023-02-16T07:17:57.829Z,6.5
2023-02-16T07:19:59.997Z,6.5
2023-02-16T07:22:00.224Z,6.5
2023-02-16T07:24:01.437Z,6.5
2023-02-16T07:30:08.354Z,6.6
2023-02-16T07:32:09.672Z,6.6
2023-02-16T07:38:13.116Z,6.6
2023-02-16T07:40:14.313Z,6.6
2023-02-16T07:44:19.968Z,6.7
2023-02-16T07:46:21.174Z,6.7
2023-02-16T07:48:22.378Z,6.7
2023-02-16T07:50:23.595Z,6.7
2023-02-16T07:52:24.763Z,6.7
2023-02-16T07:54:25.981Z,6.8
2023-02-16T07:56:27.246Z,6.8
2023-02-16T07:58:31.648Z,6.7
2023-02-16T08:00:32.845Z,6.8
2023-02-16T08:03:36.382Z,6.8
2023-02-16T08:05:39.120Z,6.8
2023-02-16T08:07:40.287Z,6.8
2023-02-16T08:09:41.497Z,6.8
2023-02-16T08:11:45.988Z,6.9
2023-02-16T08:13:47.153Z,6.9
2023-02-16T08:15:48.363Z,6.9
2023-02-16T08:17:49.557Z,6.9
2023-02-16T08:19:50.775Z,7
2023-02-16T08:21:51.989Z,7
2023-02-16T08:23:53.194Z,7
2023-02-16T08:25:57.670Z,7
2023-02-16T08:27:58.877Z,7
2023-02-16T08:34:02.533Z,7
2023-02-16T08:40:09.372Z,7
2023-02-16T08:42:10.577Z,7
2023-02-16T08:44:11.783Z,7
2023-02-16T08:46:13.122Z,7
2023-02-16T08:48:14.228Z,7
2023-02-16T08:50:15.408Z,7
2023-02-16T08:54:21.094Z,7.1
2023-02-16T08:56:22.299Z,7.1
2023-02-16T08:58:23.505Z,7.1
2023-02-16T08:59:28.338Z,7.1
2023-02-16T09:05:29.323Z,7.3
2023-02-16T09:07:33.814Z,7.2
2023-02-16T09:09:35.008Z,7.3
2023-02-16T09:11:36.211Z,7.3
2023-02-16T09:13:37.418Z,7.4
2023-02-16T09:17:39.840Z,7.3
2023-02-16T09:19:41.045Z,7.4
2023-02-16T09:21:45.496Z,7.5
2023-02-16T09:23:46.706Z,7.4
2023-02-16T09:25:47.926Z,7.5
2023-02-16T09:27:49.116Z,7.5
2023-02-16T09:29:50.347Z,7.5
2023-02-16T09:31:51.541Z,7.5
2023-02-16T09:33:52.744Z,7.5
2023-02-16T09:35:57.224Z,7.6
2023-02-16T09:37:58.453Z,7.5
2023-02-16T09:39:59.636Z,7.6
2023-02-16T09:42:00.842Z,7.6
2023-02-16T09:44:02.059Z,7.6
2023-02-16T09:46:03.683Z,7.7
2023-02-16T09:50:08.958Z,7.7
2023-02-16T09:52:10.209Z,7.7
2023-02-16T09:54:11.379Z,7.7
2023-02-16T09:57:14.922Z,7.7
2023-02-16T09:59:16.095Z,7.7
2023-02-16T10:01:17.349Z,7.5
2023-02-16T10:03:21.793Z,7.4
2023-02-16T10:05:23.009Z,7.4
2023-02-16T10:07:24.221Z,7.4
2023-02-16T10:09:25.407Z,7.4
2023-02-16T10:11:26.646Z,7.4
2023-02-16T10:15:29.121Z,7.4
2023-02-16T10:17:33.566Z,7.4
2023-02-16T10:19:34.793Z,7.4
2023-02-16T10:21:35.991Z,7.4
2023-02-16T10:27:39.693Z,7.5
2023-02-16T10:29:40.860Z,7.5
2023-02-16T10:37:48.980Z,7.5
2023-02-16T10:39:50.198Z,7.5
2023-02-16T10:41:51.413Z,7.5
2023-02-16T10:43:52.635Z,7.5
2023-02-16T10:47:58.287Z,7.4
2023-02-16T10:49:59.517Z,7.3
2023-02-16T10:54:29.119Z,7.3
2023-02-16T10:56:30.320Z,7.3
2023-02-16T11:00:35.997Z,7.1
2023-02-16T11:02:37.225Z,7.1
2023-02-16T11:04:38.478Z,7.1
2023-02-16T11:06:39.638Z,7.1
2023-02-16T11:08:40.838Z,7
2023-02-16T11:10:42.059Z,7.1
2023-02-16T11:12:46.515Z,7.1
2023-02-16T11:14:47.727Z,7.1
2023-02-16T11:16:48.931Z,7.2
2023-02-16T11:18:50.140Z,7.2
2023-02-16T11:20:51.349Z,7.3
2023-02-16T11:22:52.567Z,7.3
2023-02-16T11:24:53.765Z,7.4
2023-02-16T11:26:58.219Z,7.3
2023-02-16T11:28:59.419Z,7.4
2023-02-16T11:31:00.803Z,7.4
2023-02-16T11:33:01.876Z,7.4
2023-02-16T11:35:03.076Z,7.4
2023-02-16T11:37:04.271Z,7.5
2023-02-16T11:39:05.456Z,7.6
2023-02-16T11:41:09.937Z,7.6
2023-02-16T11:43:11.139Z,7.6
2023-02-16T11:45:12.368Z,7.7
2023-02-16T11:48:15.788Z,7.8
2023-02-16T11:50:17.063Z,7.8
2023-02-16T11:52:18.236Z,7.9
2023-02-16T11:54:22.702Z,7.9
2023-02-16T11:56:23.937Z,7.9
2023-02-16T12:00:26.352Z,8
2023-02-16T12:02:27.576Z,8
2023-02-16T12:04:28.797Z,8
2023-02-16T12:06:30.010Z,8
2023-02-16T12:12:36.926Z,8.1
2023-02-16T12:14:38.146Z,8.1
2023-02-16T12:16:39.421Z,8.1
2023-02-16T12:18:40.540Z,8.1
2023-02-16T12:24:47.502Z,8.2
2023-02-16T12:28:49.926Z,8.2
2023-02-16T12:34:53.569Z,8.2
2023-02-16T12:36:58.038Z,8.5
2023-02-16T12:38:59.248Z,8.5
2023-02-16T12:41:00.475Z,8.6
2023-02-16T12:42:02.748Z,8.7
2023-02-16T12:44:03.944Z,8.7
2023-02-16T12:46:05.539Z,8.7
2023-02-16T12:48:06.363Z,8.8
2023-02-16T12:50:10.930Z,8.8
2023-02-16T12:52:12.136Z,8.8
2023-02-16T12:54:13.338Z,8.9
2023-02-16T12:56:14.555Z,8.9
2023-02-16T12:58:15.788Z,8.9
2023-02-16T13:00:17.014Z,8.8
2023-02-16T13:02:18.262Z,8.8
2023-02-16T13:04:22.721Z,8.9
2023-02-16T13:10:26.403Z,9.1
2023-02-16T13:12:27.649Z,9.2
2023-02-16T13:14:28.843Z,9.3
2023-02-16T13:16:31.104Z,9.2
2023-02-16T13:18:34.577Z,9.3
2023-02-16T13:20:35.781Z,9.2
2023-02-16T13:22:37.020Z,9.4
2023-02-16T13:24:38.251Z,9.4
2023-02-16T13:26:39.467Z,9.4
2023-02-16T13:28:40.857Z,9.5
2023-02-16T13:30:42.048Z,9.7
2023-02-16T13:32:46.399Z,9.6
2023-02-16T13:34:47.622Z,9.6
2023-02-16T13:36:48.838Z,9.6
2023-02-16T13:37:51.080Z,9.6
2023-02-16T13:39:52.319Z,9.6
2023-02-16T13:41:53.521Z,9.6
2023-02-16T13:43:54.769Z,9.5
2023-02-16T13:45:59.298Z,9.6
2023-02-16T13:48:00.491Z,9.6
2023-02-16T13:50:01.714Z,9.5
2023-02-16T13:52:02.942Z,9.4
2023-02-16T13:54:04.162Z,9.4
2023-02-16T13:56:06.964Z,9.3
2023-02-16T13:58:08.148Z,9.3
2023-02-16T14:00:12.603Z,9.4
2023-02-16T14:02:13.841Z,9.4
2023-02-16T14:04:15.106Z,9.5
2023-02-16T14:06:16.297Z,9.7
2023-02-16T14:08:17.505Z,9.7
2023-02-16T14:10:18.750Z,9.7
2023-02-16T14:12:19.978Z,9.7
2023-02-16T14:14:24.448Z,9.6
2023-02-16T14:16:25.721Z,9.7
2023-02-16T14:18:26.906Z,9.8
2023-02-16T14:20:28.122Z,9.8
2023-02-16T14:22:29.348Z,9.8
2023-02-16T14:24:30.589Z,9.8
2023-02-16T14:26:31.815Z,9.8
2023-02-16T14:32:38.805Z,9.9
2023-02-16T14:39:09.592Z,9.9
2023-02-16T14:41:14.066Z,9.9
2023-02-16T14:45:18.215Z,9.9
2023-02-16T14:47:17.742Z,9.9
2023-02-16T14:49:18.962Z,9.9
2023-02-16T14:51:20.226Z,9.9
2023-02-16T14:57:27.136Z,10
2023-02-16T14:59:28.374Z,10
2023-02-16T15:01:29.593Z,10
2023-02-16T15:03:30.834Z,9.9
2023-02-16T15:05:32.032Z,9.9
2023-02-16T15:07:33.286Z,10
2023-02-16T15:09:37.746Z,10
2023-02-16T15:11:38.966Z,10
2023-02-16T15:13:40.203Z,10
2023-02-16T15:15:41.492Z,10
2023-02-16T15:17:42.651Z,10
2023-02-16T15:23:49.615Z,10.1
2023-02-16T15:25:50.843Z,10.1
2023-02-16T15:27:52.084Z,10.1
2023-02-16T15:28:54.312Z,10.1
2023-02-16T15:30:55.659Z,10.1
2023-02-16T15:32:56.802Z,10.1
2023-02-16T15:34:58.051Z,10.1
2023-02-16T15:37:02.521Z,10.1
2023-02-16T15:39:03.726Z,10.1
2023-02-16T15:41:04.955Z,10.1
2023-02-16T15:43:06.180Z,10.1
2023-02-16T15:45:07.400Z,10.1
2023-02-16T15:47:08.661Z,10.1
2023-02-16T15:49:09.862Z,10.1
2023-02-16T15:51:14.357Z,10.1
2023-02-16T15:53:15.583Z,10.1
2023-02-16T15:55:16.833Z,10.2
2023-02-16T15:57:18.033Z,10.2
2023-02-16T15:59:19.283Z,10.1
2023-02-16T16:01:27.035Z,10.1
2023-02-16T16:03:21.729Z,10.2
2023-02-16T16:05:26.239Z,10.1
2023-02-16T16:07:27.431Z,10.2
2023-02-16T16:11:29.907Z,10.1
2023-02-16T16:13:31.119Z,10.1
2023-02-16T16:15:32.343Z,10.1
2023-02-16T16:17:33.580Z,10.1
2023-02-16T16:24:42.774Z,9.9
2023-02-16T16:26:44.003Z,9.9
2023-02-16T16:28:45.228Z,9.8
2023-02-16T16:32:50.932Z,9.8
2023-02-16T16:34:52.161Z,9.7
2023-02-16T16:36:53.439Z,9.7
2023-02-16T16:38:54.618Z,9.6
2023-02-16T16:42:57.060Z,9.6
2023-02-16T16:44:58.303Z,9.5
2023-02-16T16:47:02.787Z,9.3
2023-02-16T16:49:04.013Z,9.3
2023-02-16T16:51:05.412Z,9.3
2023-02-16T16:53:06.479Z,9.2
2023-02-16T16:59:10.538Z,9.1
2023-02-16T17:01:15.020Z,9.1
2023-02-16T17:09:19.905Z,9
2023-02-16T17:13:22.351Z,9
2023-02-16T17:20:31.515Z,9
2023-02-16T17:22:32.749Z,9
2023-02-16T17:24:34.007Z,9
2023-02-16T17:26:35.200Z,9
2023-02-16T17:28:39.700Z,9
2023-02-16T17:30:40.915Z,9
2023-02-16T17:32:42.125Z,9
2023-02-16T17:34:43.351Z,9
2023-02-16T17:36:44.579Z,9
2023-02-16T17:38:45.784Z,9
2023-02-16T17:42:52.357Z,9
2023-02-16T17:44:53.553Z,9.1
2023-02-16T17:46:54.784Z,9.1
2023-02-16T17:54:59.643Z,9.2
2023-02-16T18:03:07.794Z,9.4
2023-02-16T18:05:09.007Z,9.4
2023-02-16T18:07:10.230Z,9.4
2023-02-16T18:09:11.452Z,9.5
2023-02-16T18:11:15.940Z,9.5
2023-02-16T18:13:17.184Z,9.5
2023-02-16T18:15:18.405Z,9.5
2023-02-16T18:21:49.139Z,9.5
2023-02-16T18:23:53.644Z,9.5
2023-02-16T18:25:54.862Z,9.5
2023-02-16T18:27:55.963Z,9.5
2023-02-16T18:31:58.411Z,9.5
2023-02-16T18:33:59.902Z,9.4
2023-02-16T18:36:01.108Z,9.4
2023-02-16T18:38:05.622Z,9.3
2023-02-16T18:40:06.835Z,9.3
2023-02-16T18:42:08.052Z,9.3
2023-02-16T18:44:09.297Z,9.3
2023-02-16T18:46:10.551Z,9.3
2023-02-16T18:48:11.730Z,9.3
2023-02-16T18:50:12.956Z,9.3
2023-02-16T18:52:17.447Z,9.3
2023-02-16T19:00:22.167Z,9.3
2023-02-16T19:02:23.407Z,9.3
2023-02-16T19:04:24.655Z,9.3
2023-02-16T19:06:29.130Z,9.3
2023-02-16T19:08:30.339Z,9.3
2023-02-16T19:10:31.551Z,9.3
2023-02-16T19:11:33.806Z,9.3
2023-02-16T19:13:35.030Z,9.3
2023-02-16T19:15:36.318Z,9.3
2023-02-16T19:17:37.497Z,9.3
2023-02-16T19:19:41.992Z,9.3
2023-02-16T19:21:43.210Z,9.3
2023-02-16T19:23:44.452Z,9.3
2023-02-16T19:25:45.644Z,9.3
2023-02-16T19:27:46.861Z,9.3
2023-02-16T19:29:48.082Z,9.3
2023-02-16T19:31:49.428Z,9.3
2023-02-16T19:33:53.793Z,9.3
2023-02-16T19:35:55.012Z,9.3
2023-02-16T19:39:57.451Z,9.3
2023-02-16T19:41:58.699Z,9.3
2023-02-16T19:46:02.806Z,9.3
2023-02-16T19:48:07.119Z,9.3
2023-02-16T19:50:08.348Z,9.2
2023-02-16T19:52:09.559Z,9.3
2023-02-16T19:54:10.779Z,9.2
2023-02-16T19:58:13.235Z,9.3
2023-02-16T20:07:23.599Z,9.3
2023-02-16T20:09:24.844Z,9.3
2023-02-16T20:11:26.036Z,9.3
2023-02-16T20:15:31.744Z,9.3
2023-02-16T20:17:32.949Z,9.3
2023-02-16T20:19:34.174Z,9.3
2023-02-16T20:21:35.398Z,9.3
2023-02-16T20:29:43.534Z,9.3
2023-02-16T20:33:45.936Z,9.3
2023-02-16T20:37:48.383Z,9.4
2023-02-16T20:39:49.594Z,9.4
2023-02-16T20:41:50.824Z,9.4
2023-02-16T20:43:55.343Z,9.4
2023-02-16T20:45:56.526Z,9.4
2023-02-16T20:47:57.790Z,9.4
2023-02-16T20:49:59.019Z,9.4
2023-02-16T20:54:01.445Z,9.4
2023-02-16T20:56:02.953Z,9.4
2023-02-16T20:58:07.147Z,9.4
2023-02-16T21:00:08.382Z,9.4
2023-02-16T21:02:09.734Z,9.4
2023-02-16T21:03:11.867Z,9.4
2023-02-16T21:05:13.073Z,9.4
2023-02-16T21:07:14.312Z,9.4
2023-02-16T21:09:15.526Z,9.4
2023-02-16T21:13:21.245Z,9.4
2023-02-16T21:15:22.555Z,9.5
2023-02-16T21:17:23.692Z,9.5
2023-02-16T21:19:24.917Z,9.5
2023-02-16T21:21:26.121Z,9.5
2023-02-16T21:23:27.343Z,9.5
2023-02-16T21:25:31.842Z,9.5
2023-02-16T21:27:33.070Z,9.5
2023-02-16T21:29:34.286Z,9.5
2023-02-16T21:31:35.617Z,9.5
2023-02-16T21:33:36.712Z,9.5
2023-02-16T21:35:37.951Z,9.5
2023-02-16T21:37:39.192Z,9.5
2023-02-16T21:39:43.661Z,9.5
2023-02-16T21:41:44.887Z,9.5
2023-02-16T21:43:46.133Z,9.5
2023-02-16T21:45:47.357Z,9.5
2023-02-16T21:47:48.565Z,9.6
2023-02-16T21:49:49.788Z,9.6
2023-02-16T21:51:51.025Z,9.6
2023-02-16T21:53:55.498Z,9.6
2023-02-16T21:55:57.188Z,9.6
2023-02-16T21:57:58.418Z,9.6
2023-02-16T22:00:26.688Z,9.6
2023-02-16T22:02:27.934Z,9.6
2023-02-16T22:04:29.140Z,9.6
2023-02-16T22:06:33.684Z,9.6
2023-02-16T22:10:36.109Z,9.7
2023-02-16T22:12:37.313Z,9.6
2023-02-16T22:22:46.720Z,9.6
2023-02-16T22:24:47.935Z,9.7
2023-02-16T22:26:49.173Z,9.7
2023-02-16T22:28:50.392Z,9.7
2023-02-16T22:30:51.780Z,9.7
2023-02-16T22:32:52.835Z,9.7
2023-02-16T22:34:58.354Z,9.7
2023-02-16T22:36:59.575Z,9.7
2023-02-16T22:39:00.815Z,9.7
2023-02-16T22:41:02.046Z,9.7
2023-02-16T22:43:03.262Z,9.7
2023-02-16T22:45:04.501Z,9.7
2023-02-16T22:47:05.731Z,9.7
2023-02-16T22:49:10.198Z,9.7
2023-02-16T22:51:11.460Z,9.7
2023-02-16T22:53:12.656Z,9.7
2023-02-16T22:56:16.143Z,9.7
2023-02-16T23:08:26.795Z,9.6
2023-02-16T23:12:29.511Z,9.6
2023-02-16T23:14:30.450Z,9.6
2023-02-16T23:16:34.966Z,9.6
2023-02-16T23:18:36.212Z,9.6
2023-02-16T23:20:37.411Z,9.6
2023-02-16T23:22:38.645Z,9.6
2023-02-16T23:24:39.884Z,9.6
2023-02-16T23:26:41.097Z,9.6
2023-02-16T23:28:42.333Z,9.6
2023-02-16T23:30:46.877Z,9.6
2023-02-16T23:32:48.069Z,9.6
2023-02-16T23:34:49.275Z,9.6
2023-02-16T23:36:50.509Z,9.6
2023-02-16T23:44:58.669Z,9.6
2023-02-16T23:46:59.875Z,9.6
2023-02-16T23:49:01.116Z,9.6
2023-02-16T23:50:03.355Z,9.6
2023-02-16T23:52:04.592Z,9.6
2023-02-16T23:54:05.795Z,9.6
2023-02-16T23:56:07.355Z,9.6
2023-02-16T23:58:11.512Z,9.6
